Time;durP1;ratioP1;P1;durP2;ratioP2;P2;SDS_P1;SDS_P2;PMS_P1;PMS_P2;Temp;Humidity;BMP_temperature;BMP_pressure;BME280_temperature;BME280_humidity;BME280_pressure;Samples;Min_cycle;Max_cycle;Signal;HPM_P1;HPM_P2
2021/12/30 00:00:57;;;;;;;1.10;0.80;;;10.10;99.90;;;;;;5213704;28;20748;-35
2021/12/30 00:03:30;;;;;;;2.95;1.40;;;10.10;99.90;;;;;;5220460;28;20306;-35
2021/12/30 00:06:04;;;;;;;1.17;0.90;;;10.20;99.90;;;;;;5219626;28;20045;-36
2021/12/30 00:08:37;;;;;;;3.05;1.00;;;10.20;99.90;;;;;;5217760;28;20049;-36
2021/12/30 00:11:09;;;;;;;0.82;0.80;;;10.20;99.90;;;;;;5215650;28;20052;-36
2021/12/30 00:13:44;;;;;;;0.82;0.82;;;10.20;99.90;;;;;;5213403;28;20328;-35
2021/12/30 00:16:18;;;;;;;1.10;0.90;;;10.50;99.90;;;;;;5212216;28;20529;-35
2021/12/30 00:18:51;;;;;;;0.63;0.52;;;10.20;99.90;;;;;;5217397;28;20080;-35
2021/12/30 00:21:23;;;;;;;0.77;0.70;;;10.30;99.90;;;;;;5215565;28;20045;-36
2021/12/30 00:23:56;;;;;;;0.60;0.55;;;10.30;99.90;;;;;;5213799;28;20397;-35
2021/12/30 00:26:29;;;;;;;1.08;0.98;;;10.30;99.90;;;;;;5217251;28;20345;-35
2021/12/30 00:29:01;;;;;;;0.80;0.80;;;10.30;99.90;;;;;;5211425;28;20045;-35
2021/12/30 00:31:34;;;;;;;0.88;0.77;;;10.30;99.90;;;;;;5215847;28;20057;-36
2021/12/30 00:34:06;;;;;;;1.10;0.90;;;10.30;99.90;;;;;;5222889;28;20056;-35
2021/12/30 00:36:39;;;;;;;2.35;0.60;;;10.30;99.90;;;;;;5221006;28;20478;-35
2021/12/30 00:39:11;;;;;;;1.58;0.73;;;10.30;99.90;;;;;;5214249;28;20059;-36
2021/12/30 00:41:44;;;;;;;0.90;0.60;;;10.40;99.90;;;;;;5216888;28;20044;-35
2021/12/30 00:44:16;;;;;;;0.85;0.65;;;10.40;99.90;;;;;;5216132;28;20040;-36
2021/12/30 00:46:49;;;;;;;0.70;0.60;;;10.50;99.90;;;;;;5235570;28;21206;-35
2021/12/30 00:49:21;;;;;;;1.52;0.68;;;10.40;99.90;;;;;;5218569;28;20056;-36
2021/12/30 00:51:55;;;;;;;0.88;0.70;;;10.40;99.90;;;;;;5220009;28;20505;-35
2021/12/30 00:54:28;;;;;;;0.82;0.68;;;10.50;99.90;;;;;;5211046;28;20044;-36
2021/12/30 00:57:00;;;;;;;1.10;0.60;;;10.50;99.90;;;;;;5216468;28;20052;-36
2021/12/30 00:59:33;;;;;;;0.50;0.50;;;10.50;99.90;;;;;;5216512;28;20380;-35
2021/12/30 01:02:05;;;;;;;1.13;0.60;;;10.50;99.90;;;;;;5212451;28;20453;-35
2021/12/30 01:04:38;;;;;;;0.57;0.57;;;10.50;99.90;;;;;;5199917;28;20491;-35
2021/12/30 01:07:11;;;;;;;0.47;0.47;;;10.50;99.90;;;;;;5204988;28;20207;-35
2021/12/30 01:09:43;;;;;;;0.60;0.60;;;10.50;99.90;;;;;;5214789;28;20048;-35
2021/12/30 01:12:16;;;;;;;3.55;0.70;;;10.50;99.90;;;;;;5219277;28;20040;-35
2021/12/30 01:14:49;;;;;;;0.50;0.50;;;10.50;99.90;;;;;;5210245;28;20043;-36
2021/12/30 01:17:39;;;;;;;1.37;0.50;;;10.50;99.90;;;;;;5214190;28;20041;-35
2021/12/30 01:20:14;;;;;;;0.98;0.60;;;10.50;99.90;;;;;;5214084;28;21089;-35
2021/12/30 01:22:49;;;;;;;1.10;0.70;;;10.60;99.90;;;;;;5215982;28;20048;-36
2021/12/30 01:25:21;;;;;;;4.22;0.70;;;10.60;99.90;;;;;;5214413;28;20048;-35
2021/12/30 01:27:54;;;;;;;0.60;0.60;;;10.60;99.90;;;;;;5218323;28;20049;-35
2021/12/30 01:30:26;;;;;;;0.77;0.65;;;10.60;99.90;;;;;;5214037;28;20044;-35
2021/12/30 01:32:59;;;;;;;0.57;0.50;;;10.60;99.90;;;;;;5216928;28;20044;-35
2021/12/30 01:35:31;;;;;;;0.68;0.68;;;10.60;99.90;;;;;;5221679;28;20048;-35
2021/12/30 01:38:05;;;;;;;0.55;0.55;;;10.60;99.90;;;;;;5219739;28;20410;-36
2021/12/30 01:40:40;;;;;;;0.50;0.50;;;10.60;99.90;;;;;;5219499;28;20701;-36
2021/12/30 01:43:13;;;;;;;0.70;0.70;;;10.60;99.90;;;;;;5222508;28;20402;-36
2021/12/30 01:45:46;;;;;;;1.38;0.70;;;10.60;99.90;;;;;;5215441;28;20060;-36
2021/12/30 01:48:21;;;;;;;0.60;0.60;;;10.60;99.90;;;;;;5231954;28;25619;-35
2021/12/30 01:50:53;;;;;;;0.50;0.50;;;10.60;99.90;;;;;;5220869;28;20044;-36
2021/12/30 01:53:26;;;;;;;3.13;0.70;;;10.60;99.90;;;;;;5219165;28;20040;-35
2021/12/30 01:55:59;;;;;;;1.20;0.70;;;12.20;99.90;;;;;;5219919;28;20043;-35
2021/12/30 01:58:32;;;;;;;0.98;0.80;;;10.60;99.90;;;;;;5218332;28;20040;-36
2021/12/30 02:01:05;;;;;;;2.78;0.65;;;10.60;99.90;;;;;;5209109;28;20407;-36
2021/12/30 02:03:38;;;;;;;0.50;0.47;;;10.60;99.90;;;;;;5222006;28;20049;-36
2021/12/30 02:06:10;;;;;;;0.75;0.70;;;10.60;99.90;;;;;;5220250;28;20052;-36
2021/12/30 02:08:43;;;;;;;0.50;0.40;;;10.60;99.90;;;;;;5219759;28;20057;-35
2021/12/30 02:11:18;;;;;;;0.80;0.50;;;10.60;99.90;;;;;;5217371;28;20045;-36
2021/12/30 02:13:52;;;;;;;2.33;0.57;;;10.70;99.90;;;;;;5218616;28;20892;-36
2021/12/30 02:16:25;;;;;;;1.05;0.63;;;10.60;99.90;;;;;;5218128;28;20052;-35
2021/12/30 02:18:58;;;;;;;0.73;0.67;;;10.70;99.90;;;;;;5217239;28;20055;-35
2021/12/30 02:21:30;;;;;;;0.52;0.52;;;10.70;99.90;;;;;;5218772;28;20297;-35
2021/12/30 02:24:03;;;;;;;1.98;0.75;;;10.70;99.90;;;;;;5226479;28;20051;-35
2021/12/30 02:26:36;;;;;;;0.95;0.85;;;10.70;99.90;;;;;;5218337;28;20421;-36
2021/12/30 02:29:09;;;;;;;1.25;0.90;;;10.70;99.90;;;;;;5215940;28;20049;-35
2021/12/30 02:31:41;;;;;;;0.97;0.87;;;10.70;99.90;;;;;;5218472;28;20056;-35
2021/12/30 02:34:16;;;;;;;1.35;0.70;;;10.70;99.90;;;;;;5214661;28;20053;-35
2021/12/30 02:36:50;;;;;;;1.30;0.82;;;10.70;99.90;;;;;;5213015;28;20045;-35
2021/12/30 02:39:23;;;;;;;1.55;0.60;;;10.70;99.90;;;;;;5215154;28;20524;-35
2021/12/30 02:41:57;;;;;;;0.90;0.80;;;10.60;99.90;;;;;;5217233;28;20044;-35
2021/12/30 02:44:29;;;;;;;1.90;0.90;;;10.60;99.90;;;;;;5221205;28;20048;-35
2021/12/30 02:47:02;;;;;;;1.13;1.00;;;10.60;99.90;;;;;;5215718;28;20126;-35
2021/12/30 02:49:35;;;;;;;1.27;0.90;;;10.60;99.90;;;;;;5216239;28;20055;-35
2021/12/30 02:52:07;;;;;;;0.88;0.70;;;10.70;99.90;;;;;;5212413;28;20049;-36
2021/12/30 02:54:42;;;;;;;0.70;0.70;;;10.60;99.90;;;;;;5220750;28;20219;-35
2021/12/30 02:57:14;;;;;;;0.95;0.70;;;10.60;99.90;;;;;;5219429;28;20044;-35
2021/12/30 02:59:47;;;;;;;4.20;0.70;;;10.70;99.90;;;;;;5215168;28;20060;-36
2021/12/30 03:02:19;;;;;;;0.57;0.55;;;10.70;99.90;;;;;;5213497;28;20041;-35
2021/12/30 03:04:52;;;;;;;2.33;0.70;;;10.70;99.90;;;;;;5215133;28;20064;-35
2021/12/30 03:07:25;;;;;;;1.10;0.82;;;10.70;99.90;;;;;;5234695;28;20059;-35
2021/12/30 03:09:57;;;;;;;2.07;0.87;;;10.70;99.90;;;;;;5214627;28;20380;-35
2021/12/30 03:12:30;;;;;;;1.30;0.98;;;10.70;99.90;;;;;;5215997;28;20479;-36
2021/12/30 03:15:03;;;;;;;0.88;0.80;;;10.70;99.90;;;;;;5213928;28;20560;-35
2021/12/30 03:17:37;;;;;;;0.90;0.77;;;10.80;99.90;;;;;;5218260;28;20048;-35
2021/12/30 03:20:10;;;;;;;1.05;0.77;;;10.80;99.90;;;;;;5218928;28;20033;-35
2021/12/30 03:22:44;;;;;;;0.80;0.80;;;10.80;99.90;;;;;;5218024;28;20049;-35
2021/12/30 03:25:17;;;;;;;0.68;0.63;;;10.80;99.90;;;;;;5218049;28;20041;-35
2021/12/30 03:27:50;;;;;;;0.80;0.60;;;10.80;99.90;;;;;;5214415;28;20057;-35
2021/12/30 03:30:22;;;;;;;1.23;0.70;;;10.80;99.90;;;;;;5213808;28;20327;-36
2021/12/30 03:32:55;;;;;;;0.77;0.77;;;10.80;99.90;;;;;;5214371;28;20064;-35
2021/12/30 03:35:27;;;;;;;1.00;0.77;;;10.80;99.90;;;;;;5217222;28;20052;-35
2021/12/30 03:38:00;;;;;;;1.00;0.60;;;10.80;99.90;;;;;;5215346;28;20048;-36
2021/12/30 03:40:33;;;;;;;0.70;0.70;;;10.80;99.90;;;;;;5216073;28;20051;-35
2021/12/30 03:43:05;;;;;;;1.23;0.75;;;10.90;99.90;;;;;;5214505;28;20610;-36
2021/12/30 03:45:38;;;;;;;0.70;0.70;;;10.90;99.90;;;;;;5210722;28;20040;-36
2021/12/30 03:48:11;;;;;;;2.10;1.23;;;10.90;99.90;;;;;;5212508;28;20059;-36
2021/12/30 03:50:45;;;;;;;2.65;1.40;;;10.90;99.90;;;;;;5218237;28;20513;-35
2021/12/30 03:53:17;;;;;;;1.02;0.93;;;10.90;99.90;;;;;;5208716;28;20405;-36
2021/12/30 03:55:51;;;;;;;2.90;0.80;;;10.80;99.90;;;;;;5201763;28;20048;-35
2021/12/30 03:58:24;;;;;;;1.00;0.90;;;10.90;99.90;;;;;;5208240;28;20040;-36
2021/12/30 04:00:56;;;;;;;0.70;0.70;;;10.90;99.90;;;;;;5208524;28;20402;-35
2021/12/30 04:03:29;;;;;;;3.03;1.00;;;10.90;99.90;;;;;;5211409;28;20098;-35
2021/12/30 04:06:02;;;;;;;1.65;0.82;;;10.90;99.90;;;;;;5211163;28;20063;-36
2021/12/30 04:08:35;;;;;;;1.92;0.90;;;10.90;99.90;;;;;;5205088;28;20067;-36
2021/12/30 04:11:08;;;;;;;1.10;1.00;;;10.90;99.90;;;;;;5210809;28;20060;-35
2021/12/30 04:13:40;;;;;;;0.90;0.77;;;10.90;99.90;;;;;;5212101;28;20052;-35
2021/12/30 04:16:13;;;;;;;1.13;1.05;;;10.90;99.90;;;;;;5212193;28;20426;-35
2021/12/30 04:18:48;;;;;;;1.88;1.08;;;10.90;99.90;;;;;;5213404;28;20049;-35
2021/12/30 04:21:22;;;;;;;0.98;0.90;;;10.90;99.90;;;;;;5217118;28;20068;-36
2021/12/30 04:23:54;;;;;;;3.03;1.00;;;10.90;99.90;;;;;;5218320;28;20055;-35
2021/12/30 04:26:32;;;;;;;2.97;0.95;;;10.90;99.90;;;;;;5220127;28;20041;-35
2021/12/30 04:29:04;;;;;;;2.65;1.10;;;10.90;99.90;;;;;;5213351;28;20044;-36
2021/12/30 04:31:37;;;;;;;1.80;1.20;;;10.80;99.90;;;;;;5214808;28;20052;-36
2021/12/30 04:34:10;;;;;;;2.95;1.10;;;11.30;99.90;;;;;;5215925;28;21131;-35
2021/12/30 04:36:43;;;;;;;1.17;0.95;;;10.80;99.90;;;;;;5225171;28;20486;-36
2021/12/30 04:39:15;;;;;;;1.38;1.05;;;10.80;99.90;;;;;;5219976;28;20231;-36
2021/12/30 04:41:47;;;;;;;1.50;0.90;;;10.80;99.90;;;;;;5215303;28;20043;-36
2021/12/30 04:44:20;;;;;;;1.92;1.20;;;10.70;99.90;;;;;;5219390;28;20068;-36
2021/12/30 04:46:53;;;;;;;1.17;1.03;;;10.80;99.90;;;;;;5220583;28;20052;-35
2021/12/30 04:49:25;;;;;;;1.35;0.93;;;10.80;99.90;;;;;;5217449;28;20537;-36
2021/12/30 04:51:59;;;;;;;3.73;0.97;;;10.80;99.90;;;;;;5219526;28;20479;-35
2021/12/30 04:54:32;;;;;;;1.98;0.82;;;10.70;99.90;;;;;;5211734;28;20060;-36
2021/12/30 04:57:05;;;;;;;1.20;0.88;;;10.80;99.90;;;;;;5214307;28;20051;-36
2021/12/30 04:59:37;;;;;;;1.00;0.77;;;10.80;99.90;;;;;;5207591;28;20048;-36
2021/12/30 05:02:11;;;;;;;1.45;0.93;;;10.80;99.90;;;;;;5209902;28;20325;-36
2021/12/30 05:04:44;;;;;;;1.38;0.70;;;10.80;99.90;;;;;;5223114;28;20045;-36
2021/12/30 05:07:16;;;;;;;1.90;0.85;;;10.80;99.90;;;;;;5208296;28;20056;-35
2021/12/30 05:09:49;;;;;;;1.77;0.70;;;10.80;99.90;;;;;;5200108;28;20045;-36
2021/12/30 05:12:21;;;;;;;1.88;1.20;;;9.60;99.90;;;;;;5222201;28;20224;-36
2021/12/30 05:14:54;;;;;;;2.60;1.10;;;10.80;99.90;;;;;;5209580;28;20049;-35
2021/12/30 05:17:29;;;;;;;3.28;1.38;;;10.80;99.90;;;;;;5214521;28;20040;-36
2021/12/30 05:20:03;;;;;;;1.02;0.70;;;10.80;99.90;;;;;;5227432;28;20064;-36
2021/12/30 05:22:35;;;;;;;;;;;10.80;99.90;;;;;;5215790;28;20045;-35
2021/12/30 05:25:11;;;;;;;2.67;0.80;;;10.70;99.90;;;;;;5213622;28;19935;-36
2021/12/30 05:27:45;;;;;;;1.30;0.77;;;10.80;99.90;;;;;;5211001;28;20056;-36
2021/12/30 05:30:19;;;;;;;1.02;0.90;;;10.80;99.90;;;;;;5207901;28;20052;-37
2021/12/30 05:32:55;;;;;;;0.73;0.73;;;10.80;99.90;;;;;;5213474;28;20045;-36
2021/12/30 05:35:27;;;;;;;0.90;0.73;;;10.80;99.90;;;;;;5209412;28;20049;-36
2021/12/30 05:38:02;;;;;;;2.38;0.70;;;10.80;99.90;;;;;;5213123;28;20269;-36
2021/12/30 05:40:34;;;;;;;2.45;0.93;;;10.80;99.90;;;;;;5202577;28;20041;-36
2021/12/30 05:43:07;;;;;;;3.10;0.93;;;10.80;99.90;;;;;;5198552;28;20041;-35
2021/12/30 05:45:44;;;;;;;2.78;0.82;;;10.80;99.90;;;;;;5198368;28;20044;-35
2021/12/30 05:48:17;;;;;;;0.80;0.80;;;10.80;99.90;;;;;;5208486;28;20048;-36
2021/12/30 05:50:49;;;;;;;0.77;0.77;;;10.80;99.90;;;;;;5210633;28;20494;-35
2021/12/30 05:53:22;;;;;;;1.00;0.90;;;10.80;99.90;;;;;;5210409;28;20049;-36
2021/12/30 05:55:55;;;;;;;0.60;0.60;;;11.70;99.90;;;;;;5198815;28;20045;-37
2021/12/30 05:58:28;;;;;;;0.80;0.80;;;10.80;99.90;;;;;;5206973;28;20044;-35
2021/12/30 06:01:01;;;;;;;1.60;0.80;;;10.80;99.90;;;;;;5210132;28;20040;-35
2021/12/30 06:03:34;;;;;;;3.47;1.10;;;10.80;99.90;;;;;;5203956;28;20620;-35
2021/12/30 06:06:06;;;;;;;1.02;0.82;;;10.80;99.90;;;;;;5210896;28;20075;-35
2021/12/30 06:08:39;;;;;;;1.45;1.00;;;10.80;99.90;;;;;;5218981;28;20057;-35
2021/12/30 06:11:11;;;;;;;1.20;0.90;;;10.80;99.90;;;;;;5213249;28;20044;-36
2021/12/30 06:13:44;;;;;;;1.25;0.90;;;10.80;99.90;;;;;;5211900;28;20067;-35
2021/12/30 06:16:17;;;;;;;1.42;1.00;;;10.80;99.90;;;;;;5208319;28;20053;-35
2021/12/30 06:18:49;;;;;;;1.23;0.90;;;10.90;99.90;;;;;;5210090;28;20049;-35
2021/12/30 06:21:22;;;;;;;2.88;0.98;;;10.80;99.90;;;;;;5206301;28;20047;-35
2021/12/30 06:23:54;;;;;;;3.97;1.20;;;10.80;99.90;;;;;;5208465;28;20053;-35
2021/12/30 06:26:26;;;;;;;1.50;0.82;;;10.80;99.90;;;;;;5209981;28;20047;-35
2021/12/30 06:28:59;;;;;;;2.47;1.10;;;10.40;99.90;;;;;;5208368;28;20079;-36
2021/12/30 06:31:32;;;;;;;0.88;0.60;;;10.90;99.90;;;;;;5205160;28;20055;-35
2021/12/30 06:34:05;;;;;;;0.70;0.70;;;12.00;99.90;;;;;;5197589;28;26034;-35
2021/12/30 06:36:37;;;;;;;1.92;0.80;;;10.80;99.90;;;;;;5203893;28;20283;-35
2021/12/30 06:39:10;;;;;;;1.13;0.93;;;10.90;99.90;;;;;;5200331;28;20059;-35
2021/12/30 06:41:42;;;;;;;1.33;1.23;;;10.80;99.90;;;;;;5205057;28;20053;-36
2021/12/30 06:44:15;;;;;;;2.70;1.00;;;10.90;99.90;;;;;;5218226;28;21144;-35
2021/12/30 06:46:57;;;;;;;2.58;1.15;;;10.90;99.90;;;;;;5192270;28;20059;-36
2021/12/30 06:49:35;;;;;;;1.60;0.80;;;10.90;99.90;;;;;;5200643;28;20060;-36
2021/12/30 06:52:11;;;;;;;1.25;1.02;;;10.90;99.90;;;;;;5209640;28;20522;-35
2021/12/30 06:54:43;;;;;;;1.08;0.80;;;10.90;99.90;;;;;;5197169;28;20354;-36
2021/12/30 06:57:20;;;;;;;1.23;1.10;;;10.90;99.90;;;;;;5201077;28;20056;-35
2021/12/30 06:59:52;;;;;;;3.50;1.00;;;10.90;99.90;;;;;;5200002;28;20857;-35
2021/12/30 07:02:24;;;;;;;6.97;1.00;;;10.90;99.90;;;;;;5214297;28;20059;-35
2021/12/30 07:04:57;;;;;;;1.48;1.00;;;10.90;99.90;;;;;;5215570;28;20040;-35
2021/12/30 07:07:30;;;;;;;1.25;1.00;;;10.90;99.90;;;;;;5213572;28;20048;-36
2021/12/30 07:10:04;;;;;;;2.38;1.25;;;10.90;99.90;;;;;;5214096;28;20059;-35
2021/12/30 07:12:37;;;;;;;2.03;1.50;;;10.90;99.90;;;;;;5214371;28;20057;-35
2021/12/30 07:15:09;;;;;;;3.20;1.10;;;10.90;99.90;;;;;;5210217;28;20418;-35
2021/12/30 07:17:42;;;;;;;1.63;0.90;;;10.90;99.90;;;;;;5227538;28;20051;-35
2021/12/30 07:20:15;;;;;;;1.30;0.90;;;10.90;99.90;;;;;;5215784;28;20044;-35
2021/12/30 07:22:47;;;;;;;2.37;0.90;;;10.90;99.90;;;;;;5214555;28;20410;-35
2021/12/30 07:25:22;;;;;;;1.58;1.23;;;10.90;99.90;;;;;;5215459;28;21054;-35
2021/12/30 07:27:54;;;;;;;1.33;1.23;;;10.90;99.90;;;;;;5213392;28;20352;-36
2021/12/30 07:30:27;;;;;;;1.70;1.03;;;10.90;99.90;;;;;;5210259;28;20048;-35
2021/12/30 07:33:01;;;;;;;1.92;1.10;;;10.90;99.90;;;;;;5214482;28;20303;-35
2021/12/30 07:35:36;;;;;;;1.02;0.80;;;10.90;99.90;;;;;;5212562;28;20056;-36
2021/12/30 07:38:08;;;;;;;1.25;0.75;;;10.90;99.90;;;;;;5211939;28;20052;-35
2021/12/30 07:40:40;;;;;;;1.58;1.17;;;10.90;99.90;;;;;;5213476;28;20052;-35
2021/12/30 07:43:13;;;;;;;1.77;1.48;;;11.00;99.90;;;;;;5211552;28;20040;-35
2021/12/30 07:45:45;;;;;;;1.27;1.17;;;10.90;99.90;;;;;;5213335;28;20053;-39
2021/12/30 07:48:18;;;;;;;2.42;1.45;;;11.00;99.90;;;;;;5212305;28;20610;-36
2021/12/30 07:50:51;;;;;;;1.23;1.13;;;11.00;99.90;;;;;;5215015;28;20398;-36
2021/12/30 07:53:24;;;;;;;3.17;1.30;;;12.90;99.90;;;;;;5211678;28;20399;-35
2021/12/30 07:55:57;;;;;;;4.88;1.30;;;11.00;99.90;;;;;;5213732;28;20067;-35
2021/12/30 07:58:30;;;;;;;1.13;1.00;;;11.00;99.90;;;;;;5211180;28;20041;-35
2021/12/30 08:01:03;;;;;;;2.45;1.25;;;11.00;99.90;;;;;;5214189;28;20056;-35
2021/12/30 08:03:36;;;;;;;1.90;1.25;;;11.00;99.90;;;;;;5202762;28;20047;-35
2021/12/30 08:06:08;;;;;;;1.98;1.02;;;11.00;99.90;;;;;;5215866;28;20044;-35
2021/12/30 08:08:41;;;;;;;2.90;0.97;;;11.00;99.90;;;;;;5211761;28;20071;-35
2021/12/30 08:11:14;;;;;;;1.58;1.15;;;11.00;99.90;;;;;;5216034;28;20049;-35
2021/12/30 08:13:47;;;;;;;3.05;1.50;;;11.00;99.90;;;;;;5218314;28;20048;-35
2021/12/30 08:16:19;;;;;;;4.13;2.15;;;11.00;99.90;;;;;;5214514;28;20405;-35
2021/12/30 08:18:52;;;;;;;6.13;3.30;;;11.00;99.90;;;;;;5217266;28;20033;-35
2021/12/30 08:21:24;;;;;;;5.32;2.50;;;11.00;99.90;;;;;;5224147;28;20071;-35
2021/12/30 08:23:57;;;;;;;4.43;1.98;;;11.00;99.90;;;;;;5216641;28;20270;-35
2021/12/30 08:26:29;;;;;;;3.00;1.10;;;11.00;99.90;;;;;;5213015;28;20410;-35
2021/12/30 08:29:03;;;;;;;2.47;1.33;;;11.00;99.90;;;;;;5211726;28;20484;-35
2021/12/30 08:31:36;;;;;;;4.70;1.63;;;11.00;99.90;;;;;;5214580;28;20053;-35
2021/12/30 08:34:09;;;;;;;0.93;0.90;;;11.00;99.90;;;;;;5208921;28;20064;-35
2021/12/30 08:36:41;;;;;;;3.38;1.42;;;11.10;99.90;;;;;;5211256;28;20498;-35
2021/12/30 08:39:13;;;;;;;1.85;1.20;;;11.10;99.90;;;;;;5209365;28;20037;-35
2021/12/30 08:41:46;;;;;;;1.90;0.95;;;11.10;99.90;;;;;;5209942;28;20064;-35
2021/12/30 08:44:18;;;;;;;1.52;0.80;;;11.10;99.90;;;;;;5213125;28;20059;-35
2021/12/30 08:46:51;;;;;;;0.70;0.70;;;11.10;99.90;;;;;;5209830;28;20536;-36
2021/12/30 08:49:25;;;;;;;1.33;1.05;;;11.10;99.90;;;;;;5215049;28;20533;-35
2021/12/30 08:51:58;;;;;;;2.60;0.90;;;11.10;99.90;;;;;;5211770;28;20059;-35
2021/12/30 08:54:32;;;;;;;1.20;1.10;;;11.20;99.90;;;;;;5202036;28;20437;-35
2021/12/30 08:57:05;;;;;;;1.52;1.10;;;11.20;99.90;;;;;;5214525;28;20041;-35
2021/12/30 08:59:38;;;;;;;1.73;0.80;;;11.20;99.90;;;;;;5217742;28;20057;-35
2021/12/30 09:02:10;;;;;;;1.15;0.80;;;11.20;99.90;;;;;;5220388;28;20064;-35
2021/12/30 09:04:46;;;;;;;1.73;0.80;;;11.20;99.90;;;;;;5219465;28;20059;-35
2021/12/30 09:07:19;;;;;;;1.42;1.00;;;10.90;99.90;;;;;;5212175;28;20053;-34
2021/12/30 09:09:51;;;;;;;2.87;0.90;;;11.20;99.90;;;;;;5215236;28;20052;-35
2021/12/30 09:12:24;;;;;;;3.53;1.10;;;11.20;99.90;;;;;;5218344;28;20383;-35
2021/12/30 09:15:21;;;;;;;2.85;1.00;;;11.30;99.90;;;;;;5213357;28;20051;-35
2021/12/30 09:17:54;;;;;;;3.10;1.13;;;11.20;99.90;;;;;;5215782;28;20048;-35
2021/12/30 09:20:26;;;;;;;1.10;1.00;;;11.30;99.90;;;;;;5221128;28;20279;-35
2021/12/30 09:23:00;;;;;;;1.80;1.05;;;11.20;99.90;;;;;;5220257;28;20052;-35
2021/12/30 09:25:35;;;;;;;1.58;0.85;;;11.30;99.90;;;;;;5222740;28;20502;-36
2021/12/30 09:28:11;;;;;;;6.78;3.85;;;11.30;99.90;;;;;;5222538;28;20067;-35
2021/12/30 09:30:45;;;;;;;1.63;1.00;;;11.20;99.90;;;;;;5217000;28;20045;-35
2021/12/30 09:33:18;;;;;;;0.60;0.60;;;11.40;99.90;;;;;;5222022;28;20055;-35
2021/12/30 09:35:50;;;;;;;1.60;1.00;;;11.40;99.90;;;;;;5221845;28;20048;-35
2021/12/30 09:38:23;;;;;;;0.97;0.80;;;11.40;99.90;;;;;;5220813;28;20041;-35
2021/12/30 09:40:56;;;;;;;1.20;0.80;;;11.40;99.90;;;;;;5222295;28;20310;-35
2021/12/30 09:43:28;;;;;;;1.42;1.23;;;11.40;99.90;;;;;;5218761;28;20517;-35
2021/12/30 09:46:01;;;;;;;2.92;1.20;;;11.40;99.90;;;;;;5214399;28;20040;-35
2021/12/30 09:48:33;;;;;;;2.15;1.40;;;10.40;99.90;;;;;;5201513;28;20067;-35
2021/12/30 09:51:08;;;;;;;0.60;0.60;;;11.40;99.90;;;;;;5215071;28;20418;-35
2021/12/30 09:53:40;;;;;;;4.75;0.85;;;11.40;99.90;;;;;;5194830;28;20056;-35
2021/12/30 09:56:15;;;;;;;2.33;0.80;;;11.40;99.90;;;;;;5190082;28;20604;-36
2021/12/30 09:58:47;;;;;;;1.33;0.75;;;11.50;99.90;;;;;;5196369;28;20052;-36
2021/12/30 10:01:20;;;;;;;1.00;0.90;;;11.40;99.90;;;;;;5181177;28;20049;-36
2021/12/30 10:04:00;;;;;;;2.80;1.47;;;11.40;99.90;;;;;;5202864;28;20131;-36
2021/12/30 10:06:33;;;;;;;3.63;1.20;;;11.40;99.90;;;;;;5197957;28;20060;-36
2021/12/30 10:09:11;;;;;;;;;;;11.50;99.90;;;;;;5207360;28;20064;-35
2021/12/30 10:11:50;;;;;;;1.80;0.95;;;11.50;99.90;;;;;;5199942;28;19924;-35
2021/12/30 10:14:32;;;;;;;3.10;0.77;;;11.50;99.90;;;;;;5198593;28;20060;-35
2021/12/30 10:17:20;;;;;;;1.73;0.88;;;12.30;99.90;;;;;;5202210;28;20048;-36
2021/12/30 10:19:54;;;;;;;1.60;0.93;;;11.50;99.90;;;;;;5202813;28;20048;-36
2021/12/30 10:22:27;;;;;;;2.85;0.98;;;11.60;99.90;;;;;;5203553;28;20444;-36
2021/12/30 10:24:59;;;;;;;3.70;1.20;;;11.60;99.90;;;;;;5209002;28;20548;-35
2021/12/30 10:27:34;;;;;;;2.60;0.90;;;11.60;99.90;;;;;;5200495;28;20048;-36
2021/12/30 10:30:07;;;;;;;1.58;0.90;;;11.70;99.90;;;;;;5199744;28;20078;-35
2021/12/30 10:32:40;;;;;;;5.93;1.27;;;11.70;99.90;;;;;;5198620;28;20053;-35
2021/12/30 10:35:14;;;;;;;1.67;1.30;;;11.70;99.90;;;;;;5210584;28;20052;-36
2021/12/30 10:38:00;;;;;;;0.85;0.82;;;13.20;99.90;;;;;;5206824;28;20060;-35
2021/12/30 10:40:33;;;;;;;1.52;1.20;;;11.70;99.90;;;;;;5199122;28;20045;-36
2021/12/30 10:43:31;;;;;;;1.23;0.70;;;11.80;99.90;;;;;;5201996;28;20414;-36
2021/12/30 10:46:18;;;;;;;1.60;1.00;;;11.80;99.90;;;;;;5188770;28;20513;-36
2021/12/30 10:49:09;;;;;;;2.15;1.10;;;11.90;99.90;;;;;;5196358;28;20044;-36
2021/12/30 10:51:43;;;;;;;0.98;0.82;;;11.90;99.90;;;;;;5209592;28;20072;-36
2021/12/30 10:54:20;;;;;;;;;;;11.90;99.90;;;;;;5211222;28;20064;-35
2021/12/30 10:57:02;;;;;;;1.42;1.10;;;11.90;99.90;;;;;;5196184;28;19936;-35
2021/12/30 10:59:42;;;;;;;1.75;0.93;;;12.00;99.90;;;;;;5200635;28;20040;-35
2021/12/30 11:02:21;;;;;;;1.80;0.80;;;12.10;99.90;;;;;;5213693;28;20055;-36
2021/12/30 11:04:56;;;;;;;1.05;0.95;;;12.10;99.90;;;;;;5216662;28;20380;-36
2021/12/30 11:07:51;;;;;;;0.65;0.60;;;12.10;99.90;;;;;;5199176;28;20617;-36
2021/12/30 11:10:29;;;;;;;2.45;0.82;;;12.20;99.90;;;;;;5188038;28;20904;-36
2021/12/30 11:13:10;;;;;;;0.93;0.88;;;12.20;99.90;;;;;;5204973;28;20048;-35
2021/12/30 11:15:43;;;;;;;5.60;3.00;;;12.20;99.90;;;;;;5193704;28;20305;-35
2021/12/30 11:18:18;;;;;;;1.02;0.77;;;12.20;99.90;;;;;;5210980;28;22665;-35
2021/12/30 11:20:50;;;;;;;2.70;0.90;;;12.20;99.90;;;;;;5209103;28;20052;-35
2021/12/30 11:23:23;;;;;;;2.03;0.75;;;12.30;99.90;;;;;;5215123;28;20559;-35
2021/12/30 11:25:56;;;;;;;1.15;0.65;;;12.30;99.90;;;;;;5207803;28;20037;-35
2021/12/30 11:28:31;;;;;;;0.90;0.77;;;12.30;99.90;;;;;;5199419;28;20506;-35
2021/12/30 11:31:03;;;;;;;2.58;0.75;;;12.30;99.90;;;;;;5197887;28;20055;-35
2021/12/30 11:33:36;;;;;;;0.93;0.90;;;12.30;99.90;;;;;;5203927;28;20283;-35
2021/12/30 11:36:08;;;;;;;1.42;0.70;;;12.30;99.90;;;;;;5196716;28;20052;-36
2021/12/30 11:38:41;;;;;;;1.10;0.70;;;12.30;99.90;;;;;;5190179;28;20084;-35
2021/12/30 11:41:18;;;;;;;0.52;0.40;;;12.40;99.90;;;;;;5196436;28;20446;-35
2021/12/30 11:43:51;;;;;;;1.13;0.88;;;12.40;99.90;;;;;;5196465;28;20048;-35
2021/12/30 11:46:46;;;;;;;0.70;0.70;;;12.40;99.90;;;;;;5198353;28;20298;-35
2021/12/30 11:49:18;;;;;;;1.08;0.70;;;12.40;99.90;;;;;;5206694;28;20071;-35
2021/12/30 11:51:53;;;;;;;2.80;1.00;;;12.40;99.90;;;;;;5198825;28;20044;-35
2021/12/30 11:54:35;;;;;;;1.00;0.90;;;12.40;99.90;;;;;;5203952;28;20798;-35
2021/12/30 11:57:28;;;;;;;0.85;0.70;;;12.40;99.90;;;;;;5201672;28;20049;-36
2021/12/30 12:00:34;;;;;;;1.05;0.60;;;12.40;99.90;;;;;;5204897;28;20060;-35
2021/12/30 12:03:28;;;;;;;0.80;0.80;;;12.40;99.90;;;;;;5208529;28;20052;-35
2021/12/30 12:06:03;;;;;;;4.53;3.08;;;12.40;99.90;;;;;;5178448;28;21250;-35
2021/12/30 12:08:43;;;;;;;1.80;0.80;;;12.50;99.90;;;;;;5172494;28;20045;-35
2021/12/30 12:11:46;;;;;;;0.77;0.70;;;12.50;99.90;;;;;;5197259;28;20052;-35
2021/12/30 12:14:31;;;;;;;0.60;0.60;;;12.50;99.90;;;;;;5172486;28;20280;-35
2021/12/30 12:17:11;;;;;;;1.15;0.63;;;12.50;99.90;;;;;;5172687;28;20589;-36
2021/12/30 12:19:47;;;;;;;0.70;0.70;;;12.50;99.90;;;;;;5172424;28;20052;-35
2021/12/30 12:22:20;;;;;;;0.80;0.80;;;12.50;99.90;;;;;;5174224;28;20056;-35
2021/12/30 12:25:12;;;;;;;0.65;0.65;;;12.50;99.90;;;;;;5173594;28;20722;-36
2021/12/30 12:27:52;;;;;;;1.60;0.90;;;12.00;99.90;;;;;;5180395;28;20060;-35
2021/12/30 12:30:36;;;;;;;1.70;0.80;;;12.60;99.90;;;;;;5193295;28;20037;-35
2021/12/30 12:33:27;;;;;;;2.10;0.80;;;12.60;99.90;;;;;;5195261;28;20049;-35
2021/12/30 12:36:02;;;;;;;2.15;0.80;;;12.60;99.90;;;;;;5199530;28;20048;-35
2021/12/30 12:38:46;;;;;;;4.65;0.73;;;12.60;99.90;;;;;;5202440;28;20044;-35
2021/12/30 12:41:21;;;;;;;2.25;0.90;;;12.60;99.90;;;;;;5186826;28;20426;-35
2021/12/30 12:43:57;;;;;;;0.90;0.68;;;12.60;99.90;;;;;;5199759;28;20239;-36
2021/12/30 12:46:46;;;;;;;1.15;0.90;;;12.60;99.90;;;;;;5204102;28;20040;-36
2021/12/30 12:49:34;;;;;;;1.13;1.00;;;12.60;99.90;;;;;;5210815;28;20048;-36
2021/12/30 12:52:06;;;;;;;1.17;1.08;;;12.60;99.90;;;;;;5193641;28;20495;-35
2021/12/30 12:54:38;;;;;;;2.17;1.48;;;12.70;99.90;;;;;;5203137;28;20059;-35
2021/12/30 12:57:14;;;;;;;1.48;0.80;;;12.70;99.90;;;;;;5202833;28;20585;-35
2021/12/30 12:59:47;;;;;;;2.42;0.75;;;12.70;99.90;;;;;;5202265;28;20049;-36
2021/12/30 13:02:20;;;;;;;0.82;0.70;;;12.70;99.90;;;;;;5219699;28;20502;-35
2021/12/30 13:05:11;;;;;;;2.10;0.80;;;12.70;99.90;;;;;;5206662;28;20055;-36
2021/12/30 13:07:44;;;;;;;0.60;0.60;;;12.70;99.90;;;;;;5213593;28;20052;-35
2021/12/30 13:10:19;;;;;;;0.70;0.57;;;12.70;99.90;;;;;;5203003;28;20056;-35
2021/12/30 13:12:58;;;;;;;0.68;0.65;;;12.80;99.90;;;;;;5203225;28;20064;-35
2021/12/30 13:15:38;;;;;;;0.80;0.70;;;12.90;99.90;;;;;;5218442;28;20044;-36
2021/12/30 13:18:17;;;;;;;1.35;0.70;;;12.90;99.90;;;;;;5207195;28;20053;-36
2021/12/30 13:20:50;;;;;;;1.10;0.70;;;12.90;99.90;;;;;;5206225;28;20041;-36
2021/12/30 13:23:28;;;;;;;0.60;0.50;;;12.90;99.90;;;;;;5203591;28;20084;-35
2021/12/30 13:26:09;;;;;;;0.70;0.70;;;12.90;99.90;;;;;;5215979;28;21178;-35